sensor_id;sensor_type;location;lat;lon;timestamp;temperature;humidity
74153;DHT22;62505;46.070;14.492;2023-04-03T00:01:47;21.20;67.10
74153;DHT22;62505;46.070;14.492;2023-04-03T00:04:14;21.20;67.00
74153;DHT22;62505;46.070;14.492;2023-04-03T00:06:41;21.20;67.00
74153;DHT22;62505;46.070;14.492;2023-04-03T00:09:08;21.20;67.00
74153;DHT22;62505;46.070;14.492;2023-04-03T00:11:36;21.20;67.00
74153;DHT22;62505;46.070;14.492;2023-04-03T00:14:04;21.20;67.00
74153;DHT22;62505;46.070;14.492;2023-04-03T00:16:30;21.20;66.90
74153;DHT22;62505;46.070;14.492;2023-04-03T00:18:57;21.20;66.90
74153;DHT22;62505;46.070;14.492;2023-04-03T00:21:24;21.20;66.90
74153;DHT22;62505;46.070;14.492;2023-04-03T00:23:51;21.20;67.00
74153;DHT22;62505;46.070;14.492;2023-04-03T00:26:18;21.20;66.90
74153;DHT22;62505;46.070;14.492;2023-04-03T00:28:47;21.20;66.90
74153;DHT22;62505;46.070;14.492;2023-04-03T00:31:15;21.20;66.90
74153;DHT22;62505;46.070;14.492;2023-04-03T00:33:42;21.20;66.90
74153;DHT22;62505;46.070;14.492;2023-04-03T00:36:10;21.20;66.90
74153;DHT22;62505;46.070;14.492;2023-04-03T00:38:38;21.20;66.80
74153;DHT22;62505;46.070;14.492;2023-04-03T00:41:05;21.20;66.80
74153;DHT22;62505;46.070;14.492;2023-04-03T00:43:33;21.20;66.80
74153;DHT22;62505;46.070;14.492;2023-04-03T00:46:01;21.20;66.80
74153;DHT22;62505;46.070;14.492;2023-04-03T00:48:31;21.20;66.80
74153;DHT22;62505;46.070;14.492;2023-04-03T00:50:59;21.20;66.80
74153;DHT22;62505;46.070;14.492;2023-04-03T00:53:31;21.20;66.80
74153;DHT22;62505;46.070;14.492;2023-04-03T00:56:00;21.20;66.80
74153;DHT22;62505;46.070;14.492;2023-04-03T00:58:32;21.20;66.80
74153;DHT22;62505;46.070;14.492;2023-04-03T01:01:05;21.20;66.80
74153;DHT22;62505;46.070;14.492;2023-04-03T01:03:33;21.20;66.70
74153;DHT22;62505;46.070;14.492;2023-04-03T01:06:00;21.20;66.70
74153;DHT22;62505;46.070;14.492;2023-04-03T01:08:27;21.20;66.70
74153;DHT22;62505;46.070;14.492;2023-04-03T01:10:54;21.20;66.70
74153;DHT22;62505;46.070;14.492;2023-04-03T01:13:25;21.20;66.70
74153;DHT22;62505;46.070;14.492;2023-04-03T01:15:52;21.20;66.70
74153;DHT22;62505;46.070;14.492;2023-04-03T01:18:20;21.20;66.70
74153;DHT22;62505;46.070;14.492;2023-04-03T01:24:04;21.20;66.60
74153;DHT22;62505;46.070;14.492;2023-04-03T01:26:35;21.20;66.70
74153;DHT22;62505;46.070;14.492;2023-04-03T01:29:02;21.20;66.60
74153;DHT22;62505;46.070;14.492;2023-04-03T01:31:40;21.20;66.60
74153;DHT22;62505;46.070;14.492;2023-04-03T01:34:07;21.20;66.60
74153;DHT22;62505;46.070;14.492;2023-04-03T01:36:34;21.20;66.60
74153;DHT22;62505;46.070;14.492;2023-04-03T01:39:01;21.20;66.50
74153;DHT22;62505;46.070;14.492;2023-04-03T01:41:29;21.20;66.50
74153;DHT22;62505;46.070;14.492;2023-04-03T01:43:56;21.20;66.50
74153;DHT22;62505;46.070;14.492;2023-04-03T01:46:23;21.20;66.50
74153;DHT22;62505;46.070;14.492;2023-04-03T01:48:51;21.20;66.50
74153;DHT22;62505;46.070;14.492;2023-04-03T01:51:18;21.20;66.50
74153;DHT22;62505;46.070;14.492;2023-04-03T01:53:45;21.20;66.50
74153;DHT22;62505;46.070;14.492;2023-04-03T01:56:12;21.20;66.50
74153;DHT22;62505;46.070;14.492;2023-04-03T01:58:39;21.20;66.40
74153;DHT22;62505;46.070;14.492;2023-04-03T02:01:06;21.20;66.40
74153;DHT22;62505;46.070;14.492;2023-04-03T02:03:33;21.20;66.40
74153;DHT22;62505;46.070;14.492;2023-04-03T02:06:01;21.20;66.40
74153;DHT22;62505;46.070;14.492;2023-04-03T02:08:29;21.20;66.40
74153;DHT22;62505;46.070;14.492;2023-04-03T02:10:55;21.20;66.40
74153;DHT22;62505;46.070;14.492;2023-04-03T02:13:22;21.10;66.30
74153;DHT22;62505;46.070;14.492;2023-04-03T02:15:50;21.20;66.30
74153;DHT22;62505;46.070;14.492;2023-04-03T02:18:17;21.20;66.40
74153;DHT22;62505;46.070;14.492;2023-04-03T02:20:44;21.10;66.30
74153;DHT22;62505;46.070;14.492;2023-04-03T02:23:12;21.20;66.30
74153;DHT22;62505;46.070;14.492;2023-04-03T02:25:39;21.20;67.10
74153;DHT22;62505;46.070;14.492;2023-04-03T02:28:06;21.20;66.30
74153;DHT22;62505;46.070;14.492;2023-04-03T02:30:33;21.20;66.30
74153;DHT22;62505;46.070;14.492;2023-04-03T02:33:00;21.20;66.30
74153;DHT22;62505;46.070;14.492;2023-04-03T02:35:27;21.10;66.20
74153;DHT22;62505;46.070;14.492;2023-04-03T02:37:54;21.20;66.30
74153;DHT22;62505;46.070;14.492;2023-04-03T02:40:23;21.20;66.20
74153;DHT22;62505;46.070;14.492;2023-04-03T02:42:50;21.20;66.20
74153;DHT22;62505;46.070;14.492;2023-04-03T02:45:17;21.20;66.20
74153;DHT22;62505;46.070;14.492;2023-04-03T02:47:44;21.10;66.20
74153;DHT22;62505;46.070;14.492;2023-04-03T02:50:11;21.20;66.20
74153;DHT22;62505;46.070;14.492;2023-04-03T02:52:38;21.10;66.20
74153;DHT22;62505;46.070;14.492;2023-04-03T02:55:05;21.20;67.00
74153;DHT22;62505;46.070;14.492;2023-04-03T02:57:34;21.20;66.20
74153;DHT22;62505;46.070;14.492;2023-04-03T03:00:01;21.10;66.10
74153;DHT22;62505;46.070;14.492;2023-04-03T03:02:28;21.20;66.20
74153;DHT22;62505;46.070;14.492;2023-04-03T03:04:55;21.20;66.20
74153;DHT22;62505;46.070;14.492;2023-04-03T03:07:22;21.20;66.20
74153;DHT22;62505;46.070;14.492;2023-04-03T03:09:50;21.10;66.00
74153;DHT22;62505;46.070;14.492;2023-04-03T03:12:17;21.10;66.00
74153;DHT22;62505;46.070;14.492;2023-04-03T03:14:48;21.10;66.00
74153;DHT22;62505;46.070;14.492;2023-04-03T03:17:15;21.10;66.80
74153;DHT22;62505;46.070;14.492;2023-04-03T03:19:43;21.20;66.10
74153;DHT22;62505;46.070;14.492;2023-04-03T03:22:11;21.10;65.90
74153;DHT22;62505;46.070;14.492;2023-04-03T03:24:38;21.10;66.00
74153;DHT22;62505;46.070;14.492;2023-04-03T03:27:05;21.20;66.00
74153;DHT22;62505;46.070;14.492;2023-04-03T03:29:32;21.10;65.90
74153;DHT22;62505;46.070;14.492;2023-04-03T03:32:00;21.10;65.90
74153;DHT22;62505;46.070;14.492;2023-04-03T03:34:27;21.10;65.90
74153;DHT22;62505;46.070;14.492;2023-04-03T03:36:54;21.10;65.90
74153;DHT22;62505;46.070;14.492;2023-04-03T03:39:21;21.10;65.90
74153;DHT22;62505;46.070;14.492;2023-04-03T03:41:48;21.10;65.90
74153;DHT22;62505;46.070;14.492;2023-04-03T03:44:16;21.10;65.90
74153;DHT22;62505;46.070;14.492;2023-04-03T03:46:43;21.10;65.90
74153;DHT22;62505;46.070;14.492;2023-04-03T03:49:11;21.10;65.90
74153;DHT22;62505;46.070;14.492;2023-04-03T03:51:39;21.10;65.80
74153;DHT22;62505;46.070;14.492;2023-04-03T03:54:07;21.10;65.90
74153;DHT22;62505;46.070;14.492;2023-04-03T03:56:34;21.10;65.80
74153;DHT22;62505;46.070;14.492;2023-04-03T03:59:01;21.10;65.80
74153;DHT22;62505;46.070;14.492;2023-04-03T04:01:28;21.10;65.80
74153;DHT22;62505;46.070;14.492;2023-04-03T04:03:55;21.10;65.80
74153;DHT22;62505;46.070;14.492;2023-04-03T04:06:23;21.10;66.70
74153;DHT22;62505;46.070;14.492;2023-04-03T04:08:50;21.10;65.80
74153;DHT22;62505;46.070;14.492;2023-04-03T04:11:17;21.10;65.80
74153;DHT22;62505;46.070;14.492;2023-04-03T04:13:44;21.10;65.80
74153;DHT22;62505;46.070;14.492;2023-04-03T04:16:11;21.10;65.80
74153;DHT22;62505;46.070;14.492;2023-04-03T04:18:38;21.10;66.20
74153;DHT22;62505;46.070;14.492;2023-04-03T04:21:05;21.10;66.00
74153;DHT22;62505;46.070;14.492;2023-04-03T04:23:34;21.10;66.00
74153;DHT22;62505;46.070;14.492;2023-04-03T04:26:00;21.10;66.00
74153;DHT22;62505;46.070;14.492;2023-04-03T04:28:27;21.10;66.00
74153;DHT22;62505;46.070;14.492;2023-04-03T04:30:54;21.10;66.10
74153;DHT22;62505;46.070;14.492;2023-04-03T04:33:21;21.10;66.20
74153;DHT22;62505;46.070;14.492;2023-04-03T04:35:49;21.10;63.00
74153;DHT22;62505;46.070;14.492;2023-04-03T04:38:17;21.10;58.30
74153;DHT22;62505;46.070;14.492;2023-04-03T04:40:46;21.10;56.40
74153;DHT22;62505;46.070;14.492;2023-04-03T04:43:13;21.00;54.90
74153;DHT22;62505;46.070;14.492;2023-04-03T04:45:41;21.00;55.50
74153;DHT22;62505;46.070;14.492;2023-04-03T04:48:08;20.90;52.40
74153;DHT22;62505;46.070;14.492;2023-04-03T04:50:35;20.90;52.90
74153;DHT22;62505;46.070;14.492;2023-04-03T04:53:02;20.90;53.40
74153;DHT22;62505;46.070;14.492;2023-04-03T04:55:29;20.90;54.30
74153;DHT22;62505;46.070;14.492;2023-04-03T04:57:58;20.90;56.20
74153;DHT22;62505;46.070;14.492;2023-04-03T05:00:25;20.90;56.10
74153;DHT22;62505;46.070;14.492;2023-04-03T05:02:52;20.90;56.70
74153;DHT22;62505;46.070;14.492;2023-04-03T05:05:19;20.90;56.90
74153;DHT22;62505;46.070;14.492;2023-04-03T05:07:46;21.00;57.20
74153;DHT22;62505;46.070;14.492;2023-04-03T05:10:13;21.00;57.50
74153;DHT22;62505;46.070;14.492;2023-04-03T05:12:40;21.00;57.80
74153;DHT22;62505;46.070;14.492;2023-04-03T05:15:09;21.00;57.90
74153;DHT22;62505;46.070;14.492;2023-04-03T05:17:36;21.00;58.00
74153;DHT22;62505;46.070;14.492;2023-04-03T05:20:04;21.00;58.10
74153;DHT22;62505;46.070;14.492;2023-04-03T05:22:31;21.00;58.40
74153;DHT22;62505;46.070;14.492;2023-04-03T05:24:58;21.00;58.60
74153;DHT22;62505;46.070;14.492;2023-04-03T05:27:25;21.00;58.60
74153;DHT22;62505;46.070;14.492;2023-04-03T05:29:54;21.00;58.90
74153;DHT22;62505;46.070;14.492;2023-04-03T05:32:23;21.10;59.00
74153;DHT22;62505;46.070;14.492;2023-04-03T05:34:50;21.10;59.20
74153;DHT22;62505;46.070;14.492;2023-04-03T05:37:18;21.10;59.30
74153;DHT22;62505;46.070;14.492;2023-04-03T05:39:45;21.10;59.50
74153;DHT22;62505;46.070;14.492;2023-04-03T05:42:13;21.10;59.60
74153;DHT22;62505;46.070;14.492;2023-04-03T05:44:41;21.10;59.70
74153;DHT22;62505;46.070;14.492;2023-04-03T05:47:08;21.20;59.90
74153;DHT22;62505;46.070;14.492;2023-04-03T05:49:37;21.20;59.90
74153;DHT22;62505;46.070;14.492;2023-04-03T05:52:06;21.20;60.20
74153;DHT22;62505;46.070;14.492;2023-04-03T05:54:33;21.20;62.60
74153;DHT22;62505;46.070;14.492;2023-04-03T05:57:00;21.30;61.50
74153;DHT22;62505;46.070;14.492;2023-04-03T05:59:27;21.30;61.60
74153;DHT22;62505;46.070;14.492;2023-04-03T06:01:54;21.30;61.40
74153;DHT22;62505;46.070;14.492;2023-04-03T06:04:21;21.30;61.70
74153;DHT22;62505;46.070;14.492;2023-04-03T06:06:52;21.30;61.60
74153;DHT22;62505;46.070;14.492;2023-04-03T06:09:21;21.30;61.60
74153;DHT22;62505;46.070;14.492;2023-04-03T06:11:48;21.30;61.70
74153;DHT22;62505;46.070;14.492;2023-04-03T06:14:15;21.40;61.60
74153;DHT22;62505;46.070;14.492;2023-04-03T06:16:42;21.40;61.50
74153;DHT22;62505;46.070;14.492;2023-04-03T06:19:11;21.50;61.30
74153;DHT22;62505;46.070;14.492;2023-04-03T06:21:38;21.60;61.10
74153;DHT22;62505;46.070;14.492;2023-04-03T06:24:07;21.70;61.00
74153;DHT22;62505;46.070;14.492;2023-04-03T06:26:34;21.70;60.80
74153;DHT22;62505;46.070;14.492;2023-04-03T06:29:01;21.80;60.60
74153;DHT22;62505;46.070;14.492;2023-04-03T06:31:28;21.90;60.30
74153;DHT22;62505;46.070;14.492;2023-04-03T06:33:55;22.00;60.20
74153;DHT22;62505;46.070;14.492;2023-04-03T06:36:23;22.10;60.10
74153;DHT22;62505;46.070;14.492;2023-04-03T06:38:50;22.10;59.90
74153;DHT22;62505;46.070;14.492;2023-04-03T06:41:18;22.20;59.80
74153;DHT22;62505;46.070;14.492;2023-04-03T06:43:45;22.30;59.70
74153;DHT22;62505;46.070;14.492;2023-04-03T06:46:15;22.30;59.70
74153;DHT22;62505;46.070;14.492;2023-04-03T06:48:43;22.30;59.70
74153;DHT22;62505;46.070;14.492;2023-04-03T06:51:17;22.40;59.80
74153;DHT22;62505;46.070;14.492;2023-04-03T06:53:45;22.30;59.80
74153;DHT22;62505;46.070;14.492;2023-04-03T06:56:12;22.40;60.00
74153;DHT22;62505;46.070;14.492;2023-04-03T06:58:41;22.40;60.00
74153;DHT22;62505;46.070;14.492;2023-04-03T07:01:08;22.40;60.20
74153;DHT22;62505;46.070;14.492;2023-04-03T07:03:36;22.30;60.20
74153;DHT22;62505;46.070;14.492;2023-04-03T07:06:03;22.30;60.50
74153;DHT22;62505;46.070;14.492;2023-04-03T07:08:31;22.30;60.60
74153;DHT22;62505;46.070;14.492;2023-04-03T07:10:58;22.30;60.70
74153;DHT22;62505;46.070;14.492;2023-04-03T07:13:26;22.30;60.90
74153;DHT22;62505;46.070;14.492;2023-04-03T07:15:54;22.30;61.10
74153;DHT22;62505;46.070;14.492;2023-04-03T07:18:22;22.30;61.00
74153;DHT22;62505;46.070;14.492;2023-04-03T07:20:49;22.20;61.40
74153;DHT22;62505;46.070;14.492;2023-04-03T07:23:16;22.20;61.40
74153;DHT22;62505;46.070;14.492;2023-04-03T07:25:43;22.20;61.50
74153;DHT22;62505;46.070;14.492;2023-04-03T07:28:11;22.20;61.60
74153;DHT22;62505;46.070;14.492;2023-04-03T07:30:48;22.20;61.70
74153;DHT22;62505;46.070;14.492;2023-04-03T07:33:18;22.20;61.80
74153;DHT22;62505;46.070;14.492;2023-04-03T07:35:46;22.20;62.00
74153;DHT22;62505;46.070;14.492;2023-04-03T07:38:13;22.20;62.00
74153;DHT22;62505;46.070;14.492;2023-04-03T07:40:45;22.20;62.10
74153;DHT22;62505;46.070;14.492;2023-04-03T07:43:12;22.10;62.10
74153;DHT22;62505;46.070;14.492;2023-04-03T07:45:40;22.20;62.20
74153;DHT22;62505;46.070;14.492;2023-04-03T07:48:07;22.20;62.20
74153;DHT22;62505;46.070;14.492;2023-04-03T07:50:36;22.20;62.10
74153;DHT22;62505;46.070;14.492;2023-04-03T07:53:03;22.20;61.80
74153;DHT22;62505;46.070;14.492;2023-04-03T07:55:31;22.30;61.60
74153;DHT22;62505;46.070;14.492;2023-04-03T07:57:58;22.30;61.40
74153;DHT22;62505;46.070;14.492;2023-04-03T08:00:25;22.30;61.20
74153;DHT22;62505;46.070;14.492;2023-04-03T08:02:52;22.30;61.10
74153;DHT22;62505;46.070;14.492;2023-04-03T08:05:20;22.30;61.00
74153;DHT22;62505;46.070;14.492;2023-04-03T08:07:49;22.40;61.20
74153;DHT22;62505;46.070;14.492;2023-04-03T08:10:16;22.40;61.10
74153;DHT22;62505;46.070;14.492;2023-04-03T08:12:45;22.40;61.40
74153;DHT22;62505;46.070;14.492;2023-04-03T08:15:12;22.40;61.50
74153;DHT22;62505;46.070;14.492;2023-04-03T08:17:40;22.40;61.70
74153;DHT22;62505;46.070;14.492;2023-04-03T08:20:09;22.40;61.80
74153;DHT22;62505;46.070;14.492;2023-04-03T08:22:36;22.40;62.00
74153;DHT22;62505;46.070;14.492;2023-04-03T08:25:05;22.40;62.30
74153;DHT22;62505;46.070;14.492;2023-04-03T08:27:32;22.40;62.70
74153;DHT22;62505;46.070;14.492;2023-04-03T08:29:59;22.40;62.50
74153;DHT22;62505;46.070;14.492;2023-04-03T08:32:27;22.40;62.80
74153;DHT22;62505;46.070;14.492;2023-04-03T08:34:54;22.30;63.10
74153;DHT22;62505;46.070;14.492;2023-04-03T08:37:21;22.30;63.40
74153;DHT22;62505;46.070;14.492;2023-04-03T08:39:48;22.30;63.70
74153;DHT22;62505;46.070;14.492;2023-04-03T08:42:24;22.30;64.00
74153;DHT22;62505;46.070;14.492;2023-04-03T08:45:00;22.30;64.30
74153;DHT22;62505;46.070;14.492;2023-04-03T08:47:32;22.30;64.50
74153;DHT22;62505;46.070;14.492;2023-04-03T08:50:07;22.20;64.90
74153;DHT22;62505;46.070;14.492;2023-04-03T08:52:37;22.30;65.40
74153;DHT22;62505;46.070;14.492;2023-04-03T08:55:07;22.30;64.90
74153;DHT22;62505;46.070;14.492;2023-04-03T08:57:44;22.20;64.50
74153;DHT22;62505;46.070;14.492;2023-04-03T09:00:18;22.30;64.80
74153;DHT22;62505;46.070;14.492;2023-04-03T09:02:46;22.30;64.50
74153;DHT22;62505;46.070;14.492;2023-04-03T09:05:16;22.40;64.70
74153;DHT22;62505;46.070;14.492;2023-04-03T09:07:45;22.40;64.50
74153;DHT22;62505;46.070;14.492;2023-04-03T09:10:15;22.40;64.50
74153;DHT22;62505;46.070;14.492;2023-04-03T09:12:46;22.40;64.70
74153;DHT22;62505;46.070;14.492;2023-04-03T09:15:19;22.40;64.60
74153;DHT22;62505;46.070;14.492;2023-04-03T09:17:57;22.40;64.90
74153;DHT22;62505;46.070;14.492;2023-04-03T09:20:36;22.40;65.80
74153;DHT22;62505;46.070;14.492;2023-04-03T09:23:15;22.40;66.20
74153;DHT22;62505;46.070;14.492;2023-04-03T09:25:43;22.40;65.90
74153;DHT22;62505;46.070;14.492;2023-04-03T09:28:12;22.40;66.10
74153;DHT22;62505;46.070;14.492;2023-04-03T09:30:40;22.40;65.40
74153;DHT22;62505;46.070;14.492;2023-04-03T09:33:08;22.30;65.60
74153;DHT22;62505;46.070;14.492;2023-04-03T09:35:37;22.30;65.70
74153;DHT22;62505;46.070;14.492;2023-04-03T09:38:17;22.20;65.60
74153;DHT22;62505;46.070;14.492;2023-04-03T09:40:45;22.20;65.50
74153;DHT22;62505;46.070;14.492;2023-04-03T09:43:25;22.20;65.30
74153;DHT22;62505;46.070;14.492;2023-04-03T09:45:53;22.20;65.30
74153;DHT22;62505;46.070;14.492;2023-04-03T09:48:22;22.10;65.00
74153;DHT22;62505;46.070;14.492;2023-04-03T09:50:56;22.10;64.80
74153;DHT22;62505;46.070;14.492;2023-04-03T09:53:33;22.10;64.30
74153;DHT22;62505;46.070;14.492;2023-04-03T09:56:02;22.20;63.80
74153;DHT22;62505;46.070;14.492;2023-04-03T09:58:33;22.20;63.30
74153;DHT22;62505;46.070;14.492;2023-04-03T10:01:02;22.20;62.70
74153;DHT22;62505;46.070;14.492;2023-04-03T10:03:31;22.30;62.10
74153;DHT22;62505;46.070;14.492;2023-04-03T10:06:00;22.30;61.60
74153;DHT22;62505;46.070;14.492;2023-04-03T10:08:29;22.30;61.00
74153;DHT22;62505;46.070;14.492;2023-04-03T10:11:17;22.30;60.60
74153;DHT22;62505;46.070;14.492;2023-04-03T10:13:53;22.30;59.80
74153;DHT22;62505;46.070;14.492;2023-04-03T10:16:23;22.30;59.30
74153;DHT22;62505;46.070;14.492;2023-04-03T10:19:03;22.30;59.30
74153;DHT22;62505;46.070;14.492;2023-04-03T10:21:37;22.30;59.10
74153;DHT22;62505;46.070;14.492;2023-04-03T10:24:11;22.30;59.20
74153;DHT22;62505;46.070;14.492;2023-04-03T10:26:46;22.20;59.20
74153;DHT22;62505;46.070;14.492;2023-04-03T10:29:27;22.20;59.30
74153;DHT22;62505;46.070;14.492;2023-04-03T10:32:08;22.20;59.50
74153;DHT22;62505;46.070;14.492;2023-04-03T10:34:41;22.20;59.70
74153;DHT22;62505;46.070;14.492;2023-04-03T10:37:17;22.10;59.60
74153;DHT22;62505;46.070;14.492;2023-04-03T10:39:52;22.10;59.80
74153;DHT22;62505;46.070;14.492;2023-04-03T10:42:27;22.10;59.80
74153;DHT22;62505;46.070;14.492;2023-04-03T10:45:19;22.10;59.90
74153;DHT22;62505;46.070;14.492;2023-04-03T10:47:55;22.00;59.90
74153;DHT22;62505;46.070;14.492;2023-04-03T10:50:32;22.00;60.00
74153;DHT22;62505;46.070;14.492;2023-04-03T10:53:08;22.00;60.20
74153;DHT22;62505;46.070;14.492;2023-04-03T10:55:42;22.00;60.20
74153;DHT22;62505;46.070;14.492;2023-04-03T10:58:20;21.90;60.80
74153;DHT22;62505;46.070;14.492;2023-04-03T11:00:50;21.90;60.70
74153;DHT22;62505;46.070;14.492;2023-04-03T11:03:29;21.90;60.80
74153;DHT22;62505;46.070;14.492;2023-04-03T11:06:00;21.90;60.30
74153;DHT22;62505;46.070;14.492;2023-04-03T11:08:32;22.00;59.90
74153;DHT22;62505;46.070;14.492;2023-04-03T11:11:04;22.10;59.80
74153;DHT22;62505;46.070;14.492;2023-04-03T11:13:35;22.10;59.60
74153;DHT22;62505;46.070;14.492;2023-04-03T11:16:05;22.10;59.40
74153;DHT22;62505;46.070;14.492;2023-04-03T11:18:37;22.10;59.40
74153;DHT22;62505;46.070;14.492;2023-04-03T11:21:11;22.10;59.30
74153;DHT22;62505;46.070;14.492;2023-04-03T11:23:40;22.10;59.10
74153;DHT22;62505;46.070;14.492;2023-04-03T11:26:10;22.20;59.10
74153;DHT22;62505;46.070;14.492;2023-04-03T11:28:39;22.20;58.90
74153;DHT22;62505;46.070;14.492;2023-04-03T11:31:16;22.20;58.70
74153;DHT22;62505;46.070;14.492;2023-04-03T11:33:54;22.20;58.60
74153;DHT22;62505;46.070;14.492;2023-04-03T11:36:24;22.30;58.50
74153;DHT22;62505;46.070;14.492;2023-04-03T11:38:53;22.30;58.30
74153;DHT22;62505;46.070;14.492;2023-04-03T11:41:27;22.30;58.20
74153;DHT22;62505;46.070;14.492;2023-04-03T11:43:57;22.30;58.20
74153;DHT22;62505;46.070;14.492;2023-04-03T11:46:50;22.30;58.20
74153;DHT22;62505;46.070;14.492;2023-04-03T11:49:55;22.30;58.40
74153;DHT22;62505;46.070;14.492;2023-04-03T11:52:57;22.20;58.30
74153;DHT22;62505;46.070;14.492;2023-04-03T11:55:46;22.30;58.30
74153;DHT22;62505;46.070;14.492;2023-04-03T11:58:19;22.20;58.30
74153;DHT22;62505;46.070;14.492;2023-04-03T12:01:01;22.20;58.40
74153;DHT22;62505;46.070;14.492;2023-04-03T12:03:58;22.20;58.50
74153;DHT22;62505;46.070;14.492;2023-04-03T12:10:01;22.10;58.70
74153;DHT22;62505;46.070;14.492;2023-04-03T12:12:35;22.10;58.80
74153;DHT22;62505;46.070;14.492;2023-04-03T12:21:20;22.20;58.60
74153;DHT22;62505;46.070;14.492;2023-04-03T12:24:01;22.20;58.50
74153;DHT22;62505;46.070;14.492;2023-04-03T12:26:33;22.20;58.50
74153;DHT22;62505;46.070;14.492;2023-04-03T12:29:13;22.30;58.50
74153;DHT22;62505;46.070;14.492;2023-04-03T12:31:48;22.20;58.50
74153;DHT22;62505;46.070;14.492;2023-04-03T12:34:33;22.20;58.40
74153;DHT22;62505;46.070;14.492;2023-04-03T12:37:15;22.20;58.40
74153;DHT22;62505;46.070;14.492;2023-04-03T12:40:04;22.20;58.30
74153;DHT22;62505;46.070;14.492;2023-04-03T12:42:52;22.10;58.30
74153;DHT22;62505;46.070;14.492;2023-04-03T12:45:23;22.20;58.20
74153;DHT22;62505;46.070;14.492;2023-04-03T12:47:53;22.10;58.10
74153;DHT22;62505;46.070;14.492;2023-04-03T12:50:24;22.10;58.00
74153;DHT22;62505;46.070;14.492;2023-04-03T12:53:00;22.10;58.00
74153;DHT22;62505;46.070;14.492;2023-04-03T12:55:28;22.10;57.90
74153;DHT22;62505;46.070;14.492;2023-04-03T12:57:55;22.10;57.60
74153;DHT22;62505;46.070;14.492;2023-04-03T13:00:29;22.10;57.50
74153;DHT22;62505;46.070;14.492;2023-04-03T13:02:58;22.20;57.30
74153;DHT22;62505;46.070;14.492;2023-04-03T13:05:25;22.20;57.20
74153;DHT22;62505;46.070;14.492;2023-04-03T13:07:59;22.20;57.10
74153;DHT22;62505;46.070;14.492;2023-04-03T13:10:27;22.20;57.00
74153;DHT22;62505;46.070;14.492;2023-04-03T13:12:56;22.20;56.90
74153;DHT22;62505;46.070;14.492;2023-04-03T13:15:25;22.20;56.70
74153;DHT22;62505;46.070;14.492;2023-04-03T13:17:52;22.20;56.70
74153;DHT22;62505;46.070;14.492;2023-04-03T13:20:24;22.30;56.50
74153;DHT22;62505;46.070;14.492;2023-04-03T13:22:55;22.20;56.20
74153;DHT22;62505;46.070;14.492;2023-04-03T13:25:27;22.20;56.10
74153;DHT22;62505;46.070;14.492;2023-04-03T13:27:56;22.20;56.20
74153;DHT22;62505;46.070;14.492;2023-04-03T13:30:27;22.20;56.20
74153;DHT22;62505;46.070;14.492;2023-04-03T13:32:56;22.20;56.30
74153;DHT22;62505;46.070;14.492;2023-04-03T13:35:32;22.20;56.40
74153;DHT22;62505;46.070;14.492;2023-04-03T13:38:02;22.20;56.40
74153;DHT22;62505;46.070;14.492;2023-04-03T13:40:32;22.10;56.40
74153;DHT22;62505;46.070;14.492;2023-04-03T13:43:03;22.20;56.50
74153;DHT22;62505;46.070;14.492;2023-04-03T13:45:32;22.10;56.50
74153;DHT22;62505;46.070;14.492;2023-04-03T13:48:18;22.10;56.70
74153;DHT22;62505;46.070;14.492;2023-04-03T13:50:57;22.10;56.90
74153;DHT22;62505;46.070;14.492;2023-04-03T13:53:25;22.00;57.40
74153;DHT22;62505;46.070;14.492;2023-04-03T13:56:04;22.00;56.70
74153;DHT22;62505;46.070;14.492;2023-04-03T13:58:33;22.00;56.80
74153;DHT22;62505;46.070;14.492;2023-04-03T14:01:06;22.00;56.90
74153;DHT22;62505;46.070;14.492;2023-04-03T14:03:40;22.00;56.90
74153;DHT22;62505;46.070;14.492;2023-04-03T14:06:12;22.00;56.90
74153;DHT22;62505;46.070;14.492;2023-04-03T14:08:39;22.00;56.90
74153;DHT22;62505;46.070;14.492;2023-04-03T14:11:13;22.00;56.80
74153;DHT22;62505;46.070;14.492;2023-04-03T14:13:41;22.10;57.30
74153;DHT22;62505;46.070;14.492;2023-04-03T14:16:13;22.10;57.80
74153;DHT22;62505;46.070;14.492;2023-04-03T14:18:40;22.10;58.00
74153;DHT22;62505;46.070;14.492;2023-04-03T14:21:16;22.10;58.20
74153;DHT22;62505;46.070;14.492;2023-04-03T14:23:43;22.20;59.10
74153;DHT22;62505;46.070;14.492;2023-04-03T14:26:15;22.20;59.10
74153;DHT22;62505;46.070;14.492;2023-04-03T14:28:44;22.10;59.10
74153;DHT22;62505;46.070;14.492;2023-04-03T14:31:12;22.10;58.90
74153;DHT22;62505;46.070;14.492;2023-04-03T14:33:40;22.10;59.00
74153;DHT22;62505;46.070;14.492;2023-04-03T14:36:12;22.00;58.90
74153;DHT22;62505;46.070;14.492;2023-04-03T14:38:41;22.10;58.90
74153;DHT22;62505;46.070;14.492;2023-04-03T14:41:09;22.10;58.90
74153;DHT22;62505;46.070;14.492;2023-04-03T14:43:39;22.10;58.90
74153;DHT22;62505;46.070;14.492;2023-04-03T14:46:12;22.10;59.00
74153;DHT22;62505;46.070;14.492;2023-04-03T14:48:40;22.10;59.00
74153;DHT22;62505;46.070;14.492;2023-04-03T14:51:09;22.10;59.00
74153;DHT22;62505;46.070;14.492;2023-04-03T14:53:37;22.00;58.90
74153;DHT22;62505;46.070;14.492;2023-04-03T14:56:09;22.00;58.90
74153;DHT22;62505;46.070;14.492;2023-04-03T14:58:38;22.00;58.90
74153;DHT22;62505;46.070;14.492;2023-04-03T15:01:05;22.00;58.90
74153;DHT22;62505;46.070;14.492;2023-04-03T15:03:32;22.10;59.10
74153;DHT22;62505;46.070;14.492;2023-04-03T15:05:59;22.00;59.00
74153;DHT22;62505;46.070;14.492;2023-04-03T15:08:27;22.10;59.10
74153;DHT22;62505;46.070;14.492;2023-04-03T15:10:56;22.10;59.10
74153;DHT22;62505;46.070;14.492;2023-04-03T15:13:24;22.10;59.10
74153;DHT22;62505;46.070;14.492;2023-04-03T15:15:53;22.10;59.00
74153;DHT22;62505;46.070;14.492;2023-04-03T15:18:22;22.10;59.00
74153;DHT22;62505;46.070;14.492;2023-04-03T15:20:49;22.10;59.00
74153;DHT22;62505;46.070;14.492;2023-04-03T15:23:17;22.10;58.90
74153;DHT22;62505;46.070;14.492;2023-04-03T15:25:45;22.20;59.00
74153;DHT22;62505;46.070;14.492;2023-04-03T15:28:18;22.10;58.90
74153;DHT22;62505;46.070;14.492;2023-04-03T15:30:45;22.10;59.00
74153;DHT22;62505;46.070;14.492;2023-04-03T15:33:15;22.10;59.00
74153;DHT22;62505;46.070;14.492;2023-04-03T15:35:42;22.10;59.00
74153;DHT22;62505;46.070;14.492;2023-04-03T15:38:10;22.00;59.00
74153;DHT22;62505;46.070;14.492;2023-04-03T15:40:37;22.00;59.10
74153;DHT22;62505;46.070;14.492;2023-04-03T15:43:05;22.00;59.20
74153;DHT22;62505;46.070;14.492;2023-04-03T15:45:34;22.00;59.20